This demonstration page uses our WeatherBlox Daily Observations layout. Learn more.

36.19886, -115.1175

Hourly Observations for September 14, 2019

Temp ( °F °C ) Dew Point ( °F °C ) Humidity (%) Winds ( mph kmh ) Pressure ( in mb ) Visibility ( mi km ) Precip ( " mm )
12:53 am 00:53 Clear 77 25 32 0 19 19 Calm 29.94 1014 10 16.09344 0 0
1:53 am 01:53 Clear 78 25.6 32 0 19 19 W 5 7 29.94 1014 10 16.09344 0 0
2:53 am 02:53 Clear 75 23.9 32 0 21 21 W 6 9 29.94 1014 10 16.09344 0 0
3:53 am 03:53 Clear 74 23.3 33 0.6 22 22 W 6 9 29.94 1014 10 16.09344 0 0
4:53 am 04:53 Clear 74 23.3 31 -0.6 20 20 Calm 29.94 1014 10 16.09344 0 0
5:53 am 05:53 Clear 74 23.3 29 -1.7 19 19 N 3 6 29.97 1015 10 16.09344 0 0
6:53 am 06:53 Sunny 71 21.7 32 0 24 24 WNW 6 9 30 1016 10 16.09344 0 0
7:53 am 07:53 Sunny 78 25.6 29 -1.7 16 16 WNW 7 11 30 1016 10 16.09344 0 0
8:53 am 08:53 Sunny 84 28.9 28 -2.2 13 13 Calm 30 1016 10 16.09344 0 0
9:53 am 09:53 Sunny 87 30.6 27 -2.8 11 11 Calm 30 1016 10 16.09344 0 0
10:53 am 10:53 Sunny 90 32.2 26 -3.3 10 10 VRB 5 7 30 1016 10 16.09344 0 0
11:53 am 11:53 Sunny 94 34.4 24 -4.4 8 8 VRB 5 7 29.97 1015 10 16.09344 0 0
12:53 pm 12:53 Sunny 95 35 26 -3.3 8 8 E 6 9 29.94 1014 10 16.09344 0 0
1:53 pm 13:53 Sunny 97 36.1 26 -3.3 8 8 SE 10 17 29.91 1013 10 16.09344 0 0
2:53 pm 14:53 Sunny 98 36.7 26 -3.3 8 8 SE 8 13 29.88 1012 10 16.09344 0 0
3:53 pm 15:53 Sunny 99 37.2 25 -3.9 7 7 SSE 3 6 29.85 1011 10 16.09344 0 0
4:53 pm 16:53 Sunny 99 37.2 25 -3.9 7 7 SE 7 11 29.85 1011 10 16.09344 0 0
5:53 pm 17:53 Sunny 98 36.7 25 -3.9 7 7 ESE 10 17 29.83 1010 10 16.09344 0 0
6:53 pm 18:53 Clear 94 34.4 26 -3.3 9 9 ESE 6 9 29.83 1010 10 16.09344 0 0
7:53 pm 19:53 Clear 93 33.9 27 -2.8 9 9 Calm 29.85 1011 10 16.09344 0 0
8:53 pm 20:53 Clear 89 31.7 28 -2.2 11 11 E 5 7 29.85 1011 10 16.09344 0 0
9:53 pm 21:53 Clear 88 31.1 31 -0.6 13 13 Calm 29.85 1011 10 16.09344 0 0
10:53 pm 22:53 Clear 81 27.2 33 0.6 18 18 NW 6 9 29.88 1012 10 16.09344 0 0
11:53 pm 23:53 Clear 82 27.8 33 0.6 17 17 Calm 29.88 1012 10 16.09344 0 0

Powered by AerisWeather